Tuesday, July 22, 2014, 5:42 PM EDT
Back to Local

KHWV, Shirley Brookhaven Airport

Location: Shirley, NY, United States Lat: 40.817
Local Time: 5:42 PM EDT (21:42 GMT) Lon: -72.867
Time Zone: US/Eastern Elev: 82 ft

Show me the last for .
Show Coded

Time T Td Feel RH Dir Speed Gust Alt SLP Vis Weather Sky Remarks
2014-07-22 16:56 78 65 81 64 200° 14 - 30.10 30.10 10 CLR None
2014-07-22 15:56 79 66 82 64 190° 15 - 30.11 30.10 10 CLR None
2014-07-22 13:56 81 67 84 62 200° 14 - 30.14 30.13 10 CLR 6-hr Min Temp (2pm): 73.0°F
6-hr Max Temp (2pm): 84.9°F
2014-07-22 12:56 84 66 87 54 210° 10 - 30.14 30.14 10 CLR None
2014-07-22 11:56 82 68 85 62 200° 10 - 30.15 30.15 10 CLR None
2014-07-22 10:56 81 67 84 62 190° 10 - 30.16 30.16 10 CLR None
2014-07-22 09:56 81 65 83 58 230° 8 - 30.16 30.16 10 CLR None
2014-07-22 08:56 77 65 80 66 230° 6 - 30.18 30.18 10 CLR None
2014-07-22 07:56 73 63 77 70 250° 6 - 30.18 30.18 10 CLR 6-hr Min Temp (8am): 63.0°F
6-hr Max Temp (8am): 73.0°F
2014-07-22 05:56 65 62 - 90 250° 3 - 30.18 30.17 10 CLR None
2014-07-22 04:56 64 62 - 93 - Calm - 30.17 30.16 10 CLR None
2014-07-22 03:56 64 62 - 93 - Calm - 30.17 30.16 9 CLR None
2014-07-22 02:56 67 64 - 90 260° 3 - 30.17 30.17 10 CLR None
2014-07-22 01:56 67 64 - 90 230° 5 - 30.17 30.17 10 CLR 6-hr Min Temp (2am): 64.9°F
6-hr Max Temp (2am): 70.0°F
2014-07-22 00:56 65 62 - 90 - Calm - 30.18 30.17 10 CLR 24-hr Min Temp (1am): 59.0°F
24-hr Max Temp (1am): 81.0°F
2014-07-21 23:56 68 64 - 87 230° 3 - 30.18 30.17 10 CLR None
2014-07-21 21:56 69 65 - 86 200° 5 - 30.18 30.18 10 CLR None
2014-07-21 20:56 69 64 - 84 200° 6 - 30.18 30.17 10 CLR None
2014-07-21 19:56 70 64 - 81 200° 7 - 30.18 30.17 10 CLR 6-hr Min Temp (8pm): 70.0°F
6-hr Max Temp (8pm): 81.0°F
2014-07-21 18:56 72 64 76 76 220° 9 - 30.18 30.17 10 CLR None
2014-07-21 17:56 74 64 77 71 220° 10 - 30.17 30.17 10 CLR None

Support USWX by starting your Amazon purchase here.